If you wish to contribute or participate in the discussions about articles you are invited to join SKYbrary as a registered user

San Diego International Airport

From SKYbrary Wiki
KSAN
Airport
ICAO: KSAN – IATA: SAN
Summary
Name San Diego International Airport
Region North America
Territory United States US.gif
Location San Diego, California
Serving San Diego County
Elevation 5.182 m17 ft5.182 m
Coordinates 32° 44' 0.2546", -117° 11' 25.5057"
Runways
Designator Length Width Surface ROPS
9/27 2865 m9,399.606 ft 61 m200.131 ft PEM yes/yes
METAR
Observation KSAN 241651Z 28003KT 10SM CLR 21/12 A2990 RMK AO2 SLP123 T02060122
Station San Diego, San Diego International-Lindbergh Field
Date/Time 24 September 2017 16:51:00
Wind direction 280°
Wind speed 03 kts
Lowest cloud amount n/a
Temperature 20.6°C
Dew point 12.2°C
Humidity 58%
QNH hPa
Weather condition n/a

RE
Tag(s) Engineered Materials Arresting System
WX
Tag(s) Fog
EMAS equipped
Rwy(s) 27

Description

International airport serving San Diego, California, USA.

Climatology

San Diego enjoys mild, sunny weather throughout the year. Since the San Diego area straddles areas of Mediterranean climate (Csa) to the north, and Semi-arid climate (BSh) to the south and east, the climate is often referred to as "Mediterranean" or "arid-mediterranean". Fog is common in May and June.

Maps

Terrain

Loading map...

Airport Layout

Loading map...


Accidents & Serious Incidents at or in vicinity of KSAN

None on SKYbrary